createdAt,value
2018-05-26T00:02:14.790Z,54.27
2018-05-26T00:04:41.050Z,54.24
2018-05-26T00:07:07.525Z,54.30
2018-05-26T00:09:33.922Z,54.32
2018-05-26T00:12:00.141Z,54.37
2018-05-26T00:14:26.789Z,54.38
2018-05-26T00:16:53.211Z,54.42
2018-05-26T00:19:19.449Z,54.42
2018-05-26T00:21:45.970Z,54.46
2018-05-26T00:24:12.685Z,54.50
2018-05-26T00:26:38.904Z,54.52
2018-05-26T00:29:05.551Z,54.58
2018-05-26T00:31:32.079Z,54.67
2018-05-26T00:33:58.298Z,54.72
2018-05-26T00:36:24.948Z,54.74
2018-05-26T00:38:51.860Z,54.80
2018-05-26T00:41:18.060Z,54.88
2018-05-26T00:43:44.498Z,54.92
2018-05-26T00:46:11.133Z,54.88
2018-05-26T00:48:37.350Z,54.88
2018-05-26T00:51:03.899Z,54.94
2018-05-26T00:53:30.316Z,55.00
2018-05-26T00:55:56.502Z,55.06
2018-05-26T00:58:22.870Z,55.13
2018-05-26T01:00:49.939Z,55.17
2018-05-26T01:03:16.199Z,55.26
2018-05-26T01:05:42.701Z,55.29
2018-05-26T01:08:09.560Z,55.29
2018-05-26T01:10:38.591Z,55.27
2018-05-26T01:13:05.263Z,55.27
2018-05-26T01:15:31.860Z,55.28
2018-05-26T01:17:58.067Z,55.35
2018-05-26T01:20:25.517Z,55.38
2018-05-26T01:22:52.191Z,55.40
2018-05-26T01:25:18.381Z,55.42
2018-05-26T01:27:44.770Z,55.40
2018-05-26T01:30:11.467Z,55.38
2018-05-26T01:32:37.659Z,55.37
2018-05-26T01:35:04.059Z,55.37
2018-05-26T01:37:30.704Z,55.37
2018-05-26T01:39:56.932Z,55.38
2018-05-26T01:42:23.543Z,55.41
2018-05-26T01:44:49.988Z,55.44
2018-05-26T01:47:16.230Z,55.54
2018-05-26T01:49:42.826Z,55.54
2018-05-26T01:52:09.336Z,55.58
2018-05-26T01:54:35.585Z,55.62
2018-05-26T01:57:02.044Z,55.67
2018-05-26T01:59:28.986Z,55.78
2018-05-26T02:01:55.190Z,55.85
2018-05-26T02:04:21.749Z,55.94
2018-05-26T02:06:48.518Z,55.96
2018-05-26T02:09:14.690Z,55.98
2018-05-26T02:11:41.090Z,56.04
2018-05-26T02:14:07.708Z,56.10
2018-05-26T02:16:33.914Z,56.14
2018-05-26T02:19:00.370Z,56.18
2018-05-26T02:21:27.009Z,56.18
2018-05-26T02:23:53.183Z,56.21
2018-05-26T02:26:19.505Z,56.19
2018-05-26T02:28:46.248Z,56.20
2018-05-26T02:31:12.476Z,56.25
2018-05-26T02:33:38.944Z,56.22
2018-05-26T02:36:05.499Z,56.18
2018-05-26T02:38:31.706Z,56.18
2018-05-26T02:40:58.268Z,56.21
2018-05-26T02:43:24.879Z,56.17
2018-05-26T02:45:51.082Z,56.14
2018-05-26T02:48:17.727Z,56.11
2018-05-26T02:50:44.294Z,56.12
2018-05-26T02:53:10.567Z,56.09
2018-05-26T02:55:37.183Z,56.02
2018-05-26T02:58:03.648Z,55.97
2018-05-26T03:00:29.953Z,55.89
2018-05-26T03:02:56.476Z,55.79
2018-05-26T03:05:28.644Z,55.73
2018-05-26T03:08:01.553Z,55.69
2018-05-26T03:10:33.759Z,55.63
2018-05-26T03:13:06.696Z,55.60
2018-05-26T03:15:33.126Z,55.58
2018-05-26T03:18:10.841Z,55.59
2018-05-26T03:20:37.744Z,55.53
2018-05-26T03:23:04.011Z,55.52
2018-05-26T03:25:30.491Z,55.52
2018-05-26T03:27:57.134Z,55.50
2018-05-26T03:30:23.375Z,55.47
2018-05-26T03:32:49.788Z,55.39
2018-05-26T03:35:16.455Z,55.31
2018-05-26T03:37:42.637Z,55.24
2018-05-26T03:40:09.292Z,55.17
2018-05-26T03:42:36.023Z,55.08
2018-05-26T03:45:02.222Z,54.96
2018-05-26T03:47:28.754Z,54.88
2018-05-26T03:49:55.319Z,54.81
2018-05-26T03:52:21.494Z,54.75
2018-05-26T03:58:16.866Z,54.47
2018-05-26T04:00:44.123Z,54.43
2018-05-26T04:03:10.376Z,54.42
2018-05-26T04:05:36.637Z,54.38
2018-05-26T04:08:03.446Z,54.33
2018-05-26T04:10:29.625Z,54.30
2018-05-26T04:12:55.876Z,54.20
2018-05-26T04:15:23.193Z,54.15
2018-05-26T04:17:49.439Z,54.03
2018-05-26T04:20:15.729Z,53.88
2018-05-26T04:22:42.520Z,53.83
2018-05-26T04:25:08.697Z,53.72
2018-05-26T04:27:34.902Z,53.54
2018-05-26T04:30:01.620Z,53.37
2018-05-26T04:32:27.801Z,53.18
2018-05-26T04:34:54.031Z,53.00
2018-05-26T04:37:21.160Z,52.83
2018-05-26T04:39:47.405Z,52.58
2018-05-26T04:42:13.656Z,52.35
2018-05-26T04:44:40.288Z,52.07
2018-05-26T04:47:06.520Z,51.71
2018-05-26T04:49:32.743Z,51.41
2018-05-26T04:51:59.930Z,51.14
2018-05-26T04:54:26.192Z,50.97
2018-05-26T04:56:52.434Z,50.82
2018-05-26T04:59:19.755Z,50.60
2018-05-26T05:01:45.957Z,50.39
2018-05-26T05:04:12.184Z,50.14
2018-05-26T05:06:38.820Z,49.91
2018-05-26T05:09:05.082Z,49.63
2018-05-26T05:11:31.350Z,49.38
2018-05-26T05:13:58.124Z,49.20
2018-05-26T05:16:24.334Z,48.94
2018-05-26T05:18:50.606Z,48.74
2018-05-26T05:21:17.465Z,48.40
2018-05-26T05:23:43.937Z,48.21
2018-05-26T05:26:10.180Z,48.08
2018-05-26T05:28:36.794Z,47.96
2018-05-26T05:31:03.269Z,47.83
2018-05-26T05:33:29.446Z,47.78
2018-05-26T05:35:56.040Z,47.62
2018-05-26T05:38:22.560Z,47.45
2018-05-26T05:40:48.764Z,47.32
2018-05-26T05:43:15.668Z,47.18
2018-05-26T05:45:42.168Z,47.01
2018-05-26T05:48:08.395Z,46.92
2018-05-26T05:50:34.919Z,46.73
2018-05-26T05:53:01.404Z,46.52
2018-05-26T05:55:27.634Z,46.32
2018-05-26T05:57:54.166Z,46.24
2018-05-26T06:00:20.946Z,46.07
2018-05-26T06:02:47.181Z,45.91
2018-05-26T06:05:13.925Z,45.81
2018-05-26T06:07:40.196Z,45.68
2018-05-26T06:10:06.407Z,45.67
2018-05-26T06:12:33.021Z,45.54
2018-05-26T06:14:59.515Z,45.39
2018-05-26T06:17:25.780Z,45.34
2018-05-26T06:19:52.650Z,45.23
2018-05-26T06:22:19.128Z,45.07
2018-05-26T06:24:45.340Z,45.07
2018-05-26T06:27:11.860Z,44.85
2018-05-26T06:29:38.357Z,44.71
2018-05-26T06:32:04.572Z,44.65
2018-05-26T06:34:31.411Z,44.62
2018-05-26T06:36:57.853Z,44.51
2018-05-26T06:39:24.062Z,44.40
2018-05-26T06:41:50.755Z,44.38
2018-05-26T06:44:17.207Z,44.25
2018-05-26T06:46:43.402Z,44.19
2018-05-26T06:49:10.254Z,44.15
2018-05-26T06:51:36.636Z,44.07
2018-05-26T06:54:02.880Z,44.00
2018-05-26T06:56:29.934Z,43.93
2018-05-26T06:58:56.258Z,43.87
2018-05-26T07:01:22.469Z,43.79
2018-05-26T07:03:48.948Z,43.75
2018-05-26T07:06:15.343Z,43.57
2018-05-26T07:08:41.574Z,43.55
2018-05-26T07:11:08.093Z,43.46
2018-05-26T07:13:34.465Z,43.33
2018-05-26T07:16:00.659Z,43.27
2018-05-26T07:18:27.215Z,43.28
2018-05-26T07:20:53.598Z,43.14
2018-05-26T07:23:19.672Z,43.11
2018-05-26T07:25:46.373Z,42.93
2018-05-26T07:28:12.577Z,42.83
2018-05-26T07:30:38.803Z,42.70
2018-05-26T07:33:05.456Z,42.36
2018-05-26T07:35:31.810Z,42.24
2018-05-26T07:37:58.099Z,42.04
2018-05-26T07:40:24.543Z,41.93
2018-05-26T07:42:50.811Z,41.82
2018-05-26T07:45:17.050Z,41.71
2018-05-26T07:47:43.422Z,41.55
2018-05-26T07:50:09.649Z,41.40
2018-05-26T07:52:35.925Z,41.27
2018-05-26T07:55:02.283Z,41.13
2018-05-26T07:57:28.685Z,41.00
2018-05-26T07:59:54.918Z,40.85
2018-05-26T08:02:21.535Z,40.90
2018-05-26T08:04:47.715Z,40.83
2018-05-26T08:07:13.794Z,40.75
2018-05-26T08:09:40.642Z,40.60
2018-05-26T08:12:07.008Z,40.54
2018-05-26T08:14:33.274Z,40.28
2018-05-26T08:16:59.872Z,40.12
2018-05-26T08:19:26.202Z,40.11
2018-05-26T08:21:52.304Z,40.01
2018-05-26T08:24:18.659Z,39.85
2018-05-26T08:26:44.961Z,39.70
2018-05-26T08:29:11.066Z,39.51
2018-05-26T08:31:37.464Z,39.27
2018-05-26T08:34:03.790Z,39.24
2018-05-26T08:36:29.867Z,39.11
2018-05-26T08:38:56.722Z,39.01
2018-05-26T08:41:23.323Z,38.88
2018-05-26T08:43:49.410Z,38.76
2018-05-26T08:46:16.024Z,38.63
2018-05-26T08:48:42.413Z,38.43
2018-05-26T08:51:08.505Z,38.33
2018-05-26T08:53:34.798Z,38.15
2018-05-26T08:56:00.946Z,37.89
2018-05-26T08:58:27.184Z,37.75
2018-05-26T09:00:54.026Z,37.65
2018-05-26T09:03:20.400Z,37.14
2018-05-26T09:05:46.563Z,36.80
2018-05-26T09:08:13.682Z,36.86
2018-05-26T09:10:40.044Z,36.84
2018-05-26T09:13:06.283Z,36.60
2018-05-26T09:15:32.943Z,36.42
2018-05-26T09:17:59.469Z,36.46
2018-05-26T09:20:25.712Z,36.17
2018-05-26T09:22:52.122Z,33.12
2018-05-26T09:25:18.609Z,33.84
2018-05-26T09:27:44.830Z,33.78
2018-05-26T09:30:11.471Z,33.64
2018-05-26T09:32:38.090Z,33.80
2018-05-26T09:35:04.359Z,33.85
2018-05-26T09:37:31.115Z,33.84
2018-05-26T09:39:57.608Z,33.18
2018-05-26T09:42:23.890Z,33.31
2018-05-26T09:44:51.007Z,32.84
2018-05-26T09:47:17.245Z,32.36
2018-05-26T09:49:43.360Z,31.91
2018-05-26T09:52:09.904Z,31.62
2018-05-26T09:54:36.672Z,31.36
2018-05-26T09:57:02.785Z,31.08
2018-05-26T09:59:29.067Z,30.84
2018-05-26T10:01:55.223Z,30.60
2018-05-26T10:04:21.330Z,27.90
2018-05-26T10:06:47.743Z,28.58
2018-05-26T10:09:13.970Z,28.95
2018-05-26T10:11:40.112Z,28.48
2018-05-26T10:14:06.886Z,28.45
2018-05-26T10:16:33.859Z,28.25
2018-05-26T10:18:59.923Z,28.23
2018-05-26T10:21:26.371Z,28.01
2018-05-26T10:23:52.508Z,27.88
2018-05-26T10:26:18.640Z,27.64
2018-05-26T10:28:44.974Z,27.51
2018-05-26T10:31:11.185Z,27.50
2018-05-26T10:33:37.287Z,27.24
2018-05-26T10:36:03.822Z,27.06
2018-05-26T10:38:30.238Z,26.97
2018-05-26T10:40:56.307Z,26.87
2018-05-26T10:43:22.993Z,26.78
2018-05-26T10:45:55.127Z,26.35
2018-05-26T10:48:21.261Z,26.32
2018-05-26T10:50:47.656Z,26.02
2018-05-26T10:53:13.711Z,25.19
2018-05-26T10:55:39.817Z,25.08
2018-05-26T10:58:06.082Z,25.35
2018-05-26T11:00:32.138Z,26.15
2018-05-26T11:02:58.381Z,26.82
2018-05-26T11:05:24.719Z,27.47
2018-05-26T11:07:50.740Z,27.99
2018-05-26T11:10:16.979Z,28.17
2018-05-26T11:12:43.840Z,28.26
2018-05-26T11:15:10.051Z,28.37
2018-05-26T11:17:36.565Z,28.50
2018-05-26T11:20:03.034Z,28.68
2018-05-26T11:22:29.233Z,28.74
2018-05-26T11:24:55.642Z,28.71
2018-05-26T11:27:22.244Z,28.82
2018-05-26T11:29:48.460Z,28.95
2018-05-26T11:32:14.750Z,28.97
2018-05-26T11:34:41.700Z,28.95
2018-05-26T11:37:07.851Z,29.07
2018-05-26T11:39:34.188Z,29.17
2018-05-26T11:42:00.738Z,29.18
2018-05-26T11:44:26.915Z,29.19
2018-05-26T11:46:53.228Z,29.25
2018-05-26T11:49:19.730Z,29.36
2018-05-26T11:51:45.882Z,29.48
2018-05-26T11:54:12.184Z,29.33
2018-05-26T11:56:38.829Z,29.36
2018-05-26T11:59:05.052Z,29.45
2018-05-26T12:01:31.523Z,29.49
2018-05-26T12:03:58.507Z,29.51
2018-05-26T12:06:24.669Z,29.45
2018-05-26T12:08:50.967Z,29.44
2018-05-26T12:11:17.597Z,29.46
2018-05-26T12:13:43.767Z,29.39
2018-05-26T12:16:10.111Z,29.36
2018-05-26T12:18:37.056Z,29.37
2018-05-26T12:21:03.267Z,29.44
2018-05-26T12:23:29.589Z,29.40
2018-05-26T12:25:56.021Z,29.45
2018-05-26T12:28:22.173Z,29.18
2018-05-26T12:30:48.289Z,29.30
2018-05-26T12:33:14.809Z,29.20
2018-05-26T12:35:40.979Z,29.19
2018-05-26T12:38:07.099Z,29.08
2018-05-26T12:40:33.634Z,29.07
2018-05-26T12:42:59.794Z,29.18
2018-05-26T12:45:26.188Z,29.02
2018-05-26T12:47:52.759Z,29.05
2018-05-26T12:50:18.782Z,28.97
2018-05-26T12:52:45.089Z,28.67
2018-05-26T12:55:11.611Z,28.82
2018-05-26T12:57:37.652Z,28.79
2018-05-26T13:00:03.775Z,28.83
2018-05-26T13:02:30.095Z,28.86
2018-05-26T13:04:56.249Z,28.94
2018-05-26T13:07:22.588Z,29.02
2018-05-26T13:09:49.142Z,29.15
2018-05-26T13:12:15.311Z,29.27
2018-05-26T13:14:41.663Z,29.34
2018-05-26T13:17:08.170Z,29.22
2018-05-26T13:19:34.209Z,29.05
2018-05-26T13:22:00.607Z,28.85
2018-05-26T13:24:27.027Z,28.95
2018-05-26T13:26:53.219Z,29.23
2018-05-26T13:29:19.380Z,29.27
2018-05-26T13:31:46.185Z,29.34
2018-05-26T13:34:12.349Z,29.44
2018-05-26T13:36:38.711Z,29.67
2018-05-26T13:39:05.229Z,29.69
2018-05-26T13:41:31.456Z,29.68
2018-05-26T13:43:57.977Z,29.73
2018-05-26T13:46:24.697Z,29.69
2018-05-26T13:48:50.911Z,29.67
2018-05-26T13:51:17.506Z,29.52
2018-05-26T13:53:44.054Z,29.47
2018-05-26T13:56:10.280Z,29.41
2018-05-26T13:58:36.661Z,29.42
2018-05-26T14:01:03.497Z,29.52
2018-05-26T14:03:29.743Z,29.58
2018-05-26T14:05:56.168Z,29.54
2018-05-26T14:08:23.000Z,29.73
2018-05-26T14:10:49.236Z,29.78
2018-05-26T14:13:15.569Z,29.94
2018-05-26T14:15:42.118Z,30.11
2018-05-26T14:18:08.377Z,30.01
2018-05-26T14:20:34.807Z,30.04
2018-05-26T14:23:01.321Z,30.00
2018-05-26T14:25:27.581Z,29.85
2018-05-26T14:27:54.143Z,29.64
2018-05-26T14:30:20.634Z,29.45
2018-05-26T14:32:46.914Z,29.30
2018-05-26T14:35:13.427Z,29.27
2018-05-26T14:37:40.205Z,29.23
2018-05-26T14:40:06.442Z,29.12
2018-05-26T14:42:32.820Z,29.12
2018-05-26T14:44:59.732Z,29.19
2018-05-26T14:47:25.947Z,29.09
2018-05-26T14:49:52.282Z,29.07
2018-05-26T14:52:18.671Z,28.92
2018-05-26T14:54:44.906Z,28.88
2018-05-26T14:57:11.268Z,28.98
2018-05-26T14:59:38.095Z,29.05
2018-05-26T15:02:04.278Z,29.09
2018-05-26T15:04:30.633Z,28.89
2018-05-26T15:06:57.255Z,28.71
2018-05-26T15:09:23.466Z,28.48
2018-05-26T15:11:49.909Z,28.35
2018-05-26T15:14:16.574Z,28.47
2018-05-26T15:16:42.765Z,28.43
2018-05-26T15:19:09.176Z,28.19
2018-05-26T15:21:36.071Z,28.14
2018-05-26T15:24:02.280Z,28.21
2018-05-26T15:26:28.681Z,28.26
2018-05-26T15:28:55.442Z,28.21
2018-05-26T15:31:21.712Z,28.21
2018-05-26T15:33:48.233Z,28.21
2018-05-26T15:36:14.735Z,28.28
2018-05-26T15:38:41.013Z,28.48
2018-05-26T15:41:07.355Z,28.54
2018-05-26T15:43:34.004Z,28.57
2018-05-26T15:46:00.215Z,28.60
2018-05-26T15:48:26.643Z,28.66
2018-05-26T15:50:53.198Z,28.71
2018-05-26T15:53:19.430Z,28.91
2018-05-26T15:55:45.882Z,28.95
2018-05-26T15:58:12.616Z,29.09
2018-05-26T16:00:38.836Z,29.15
2018-05-26T16:03:05.130Z,29.19
2018-05-26T16:05:31.998Z,29.14
2018-05-26T16:07:58.247Z,28.98
2018-05-26T16:10:24.696Z,29.02
2018-05-26T16:12:51.285Z,28.98
2018-05-26T16:15:17.531Z,29.03
2018-05-26T16:17:43.862Z,29.11
2018-05-26T16:20:10.462Z,29.19
2018-05-26T16:22:36.684Z,29.18
2018-05-26T16:25:03.186Z,29.29
2018-05-26T16:27:30.053Z,29.40
2018-05-26T16:29:56.287Z,29.42
2018-05-26T16:32:22.723Z,29.62
2018-05-26T16:34:49.103Z,29.75
2018-05-26T16:37:15.312Z,29.88
2018-05-26T16:39:41.636Z,29.99
2018-05-26T16:42:08.506Z,30.10
2018-05-26T16:44:34.745Z,30.23
2018-05-26T16:47:01.299Z,30.33
2018-05-26T16:49:28.133Z,30.47
2018-05-26T16:51:54.372Z,30.58
2018-05-26T16:54:20.813Z,30.76
2018-05-26T16:56:47.368Z,30.90
2018-05-26T17:02:06.088Z,31.23
2018-05-26T17:04:32.368Z,31.35
2018-05-26T17:06:58.584Z,31.55
2018-05-26T17:09:25.362Z,31.65
2018-05-26T17:11:51.684Z,31.73
2018-05-26T17:14:17.908Z,31.81
2018-05-26T17:16:44.614Z,31.86
2018-05-26T17:19:10.981Z,31.91
2018-05-26T17:21:37.193Z,31.96
2018-05-26T17:24:03.705Z,32.05
2018-05-26T17:26:30.277Z,32.05
2018-05-26T17:28:56.506Z,32.06
2018-05-26T17:31:23.076Z,32.02
2018-05-26T17:33:49.434Z,32.06
2018-05-26T17:36:15.633Z,32.10
2018-05-26T17:38:42.149Z,32.14
2018-05-26T17:41:08.649Z,32.19
2018-05-26T17:43:34.853Z,32.30
2018-05-26T17:46:01.411Z,32.34
2018-05-26T17:48:27.993Z,32.37
2018-05-26T17:50:54.194Z,32.33
2018-05-26T17:53:20.639Z,32.41
2018-05-26T17:55:46.967Z,32.56
2018-05-26T17:58:13.165Z,32.68
2018-05-26T18:00:39.599Z,32.75
2018-05-26T18:03:05.911Z,32.71
2018-05-26T18:05:32.186Z,32.84
2018-05-26T18:07:58.987Z,32.79
2018-05-26T18:10:25.401Z,32.81
2018-05-26T18:12:51.689Z,32.93
2018-05-26T18:15:18.196Z,33.02
2018-05-26T18:17:44.714Z,33.02
2018-05-26T18:20:10.934Z,33.10
2018-05-26T18:22:37.508Z,33.06
2018-05-26T18:25:03.848Z,33.18
2018-05-26T18:27:30.109Z,33.16
2018-05-26T18:29:56.832Z,33.22
2018-05-26T18:32:23.141Z,33.37
2018-05-26T18:34:49.385Z,33.26
2018-05-26T18:37:15.898Z,33.18
2018-05-26T18:39:42.372Z,33.15
2018-05-26T18:42:08.620Z,33.22
2018-05-26T18:44:35.505Z,33.34
2018-05-26T18:47:01.993Z,33.43
2018-05-26T18:49:28.262Z,33.52
2018-05-26T18:51:55.182Z,33.70
2018-05-26T18:54:21.521Z,33.85
2018-05-26T18:56:47.743Z,33.99
2018-05-26T18:59:14.323Z,34.24
2018-05-26T19:01:40.800Z,34.30
2018-05-26T19:04:07.025Z,34.38
2018-05-26T19:06:34.061Z,34.46
2018-05-26T19:09:00.470Z,34.50
2018-05-26T19:11:26.681Z,34.77
2018-05-26T19:13:53.199Z,34.87
2018-05-26T19:16:19.542Z,34.93
2018-05-26T19:18:45.741Z,35.00
2018-05-26T19:21:12.341Z,35.11
2018-05-26T19:23:38.765Z,35.23
2018-05-26T19:26:04.965Z,35.35
2018-05-26T19:28:31.665Z,35.50
2018-05-26T19:30:58.192Z,35.67
2018-05-26T19:33:24.401Z,35.80
2018-05-26T19:35:51.277Z,35.92
2018-05-26T19:38:17.644Z,36.06
2018-05-26T19:40:43.819Z,36.14
2018-05-26T19:43:10.367Z,36.29
2018-05-26T19:45:36.820Z,36.37
2018-05-26T19:48:03.048Z,36.44
2018-05-26T19:50:29.686Z,36.51
2018-05-26T19:52:56.030Z,36.63
2018-05-26T19:55:22.270Z,36.72
2018-05-26T19:57:49.164Z,36.80
2018-05-26T20:00:15.700Z,36.85
2018-05-26T20:02:41.933Z,36.85
2018-05-26T20:05:08.640Z,36.83
2018-05-26T20:07:35.196Z,36.92
2018-05-26T20:10:01.431Z,36.85
2018-05-26T20:12:28.355Z,36.78
2018-05-26T20:14:54.724Z,36.73
2018-05-26T20:17:20.940Z,36.77
2018-05-26T20:19:47.411Z,36.80
2018-05-26T20:22:13.851Z,36.75
2018-05-26T20:24:40.070Z,36.78
2018-05-26T20:27:06.556Z,36.76
2018-05-26T20:29:32.927Z,36.73
2018-05-26T20:31:59.195Z,36.65
2018-05-26T20:34:26.126Z,36.50
2018-05-26T20:36:52.490Z,36.40
2018-05-26T20:39:18.717Z,36.27
2018-05-26T20:41:45.101Z,36.11
2018-05-26T20:44:11.418Z,36.09
2018-05-26T20:46:37.700Z,36.01
2018-05-26T20:49:04.428Z,36.02
2018-05-26T20:51:30.797Z,35.81
2018-05-26T20:53:56.974Z,35.66
2018-05-26T20:56:23.843Z,35.54
2018-05-26T20:58:50.215Z,35.41
2018-05-26T21:01:16.396Z,35.46
2018-05-26T21:03:42.874Z,35.31
2018-05-26T21:06:09.235Z,35.24
2018-05-26T21:08:35.535Z,35.26
2018-05-26T21:11:02.349Z,35.27
2018-05-26T21:13:28.797Z,35.31
2018-05-26T21:15:55.015Z,35.31
2018-05-26T21:18:21.676Z,35.34
2018-05-26T21:20:48.076Z,35.38
2018-05-26T21:23:14.314Z,35.47
2018-05-26T21:25:40.931Z,35.57
2018-05-26T21:28:07.296Z,35.53
2018-05-26T21:30:33.526Z,35.58
2018-05-26T21:33:00.006Z,35.59
2018-05-26T21:35:26.356Z,35.62
2018-05-26T21:37:52.592Z,35.75
2018-05-26T21:40:19.225Z,35.75
2018-05-26T21:42:45.860Z,35.79
2018-05-26T21:45:12.064Z,35.83
2018-05-26T21:47:39.214Z,35.88
2018-05-26T21:50:05.618Z,35.97
2018-05-26T21:52:31.832Z,35.94
2018-05-26T21:54:58.356Z,35.93
2018-05-26T21:57:24.709Z,35.85
2018-05-26T21:59:50.932Z,35.81
2018-05-26T22:02:17.655Z,35.83
2018-05-26T22:04:44.183Z,35.80
2018-05-26T22:07:10.382Z,35.68
2018-05-26T22:09:37.081Z,35.62
2018-05-26T22:12:03.486Z,35.58
2018-05-26T22:14:29.744Z,35.47
2018-05-26T22:16:56.653Z,35.49
2018-05-26T22:19:23.030Z,35.43
2018-05-26T22:21:49.206Z,35.37
2018-05-26T22:24:16.090Z,35.33
2018-05-26T22:26:42.553Z,35.34
2018-05-26T22:29:08.734Z,35.37
2018-05-26T22:31:35.544Z,35.39
2018-05-26T22:34:02.079Z,35.41
2018-05-26T22:36:28.275Z,35.41
2018-05-26T22:38:54.735Z,35.44
2018-05-26T22:41:21.372Z,35.49
2018-05-26T22:43:47.578Z,35.54
2018-05-26T22:46:14.213Z,35.47
2018-05-26T22:48:40.591Z,35.39
2018-05-26T22:51:06.845Z,35.34
2018-05-26T22:53:33.356Z,35.30
2018-05-26T22:55:59.788Z,35.22
2018-05-26T22:58:26.060Z,35.25
2018-05-26T23:00:52.628Z,35.22
2018-05-26T23:03:19.028Z,35.24
2018-05-26T23:05:45.278Z,35.28
2018-05-26T23:08:11.960Z,35.25
2018-05-26T23:10:38.463Z,35.26
2018-05-26T23:13:04.666Z,35.25
2018-05-26T23:15:31.208Z,35.27
2018-05-26T23:17:57.457Z,35.32
2018-05-26T23:20:23.555Z,35.36
2018-05-26T23:22:50.079Z,35.48
2018-05-26T23:25:16.577Z,35.46
2018-05-26T23:27:42.805Z,35.48
2018-05-26T23:30:09.624Z,35.60
2018-05-26T23:32:36.086Z,35.71
2018-05-26T23:35:02.353Z,35.73
2018-05-26T23:37:28.940Z,35.74
2018-05-26T23:39:55.260Z,35.74
2018-05-26T23:42:21.503Z,35.83
2018-05-26T23:44:48.017Z,35.87
2018-05-26T23:47:14.372Z,35.93
2018-05-26T23:49:40.602Z,35.93
2018-05-26T23:52:07.365Z,35.92
2018-05-26T23:54:33.738Z,36.05
2018-05-26T23:56:59.986Z,36.04
2018-05-26T23:59:26.663Z,36.08
